Flight Track Log - Related Links

Times and Time Zones

All times are in EDT time to prevent confusion due to time zone crossing. See the AWI3897 flight status page for this flight to view local times or setup timezone preferences in your user account.

Time Position Orientation Groundspeed Altitude Reporting Facility
EDT Latitude Longitude Course Direction KTS MPH feet Rate Location/Type
Mon 03:22:37 PM 38.8333 -77.0333 180° South 161 185 900  Level Potomac TRACON
Mon 03:23:37 PM 38.7833 -77.0333 180° South 213 245 2,400 2,100 Climbing Potomac TRACON
Mon 03:24:37 PM 38.7333 -77.0833 218° Southwest 266 306 5,100 2,557 Climbing Potomac TRACON
Mon 03:25:32 PM 38.7667 -77.1333 311° West 269 310 7,300 2,452 Climbing Potomac TRACON
Mon 03:26:32 PM 38.8333 -77.2000 322° Northwest 269 310 9,800 1,725 Climbing Potomac TRACON
Mon 03:28:19 PM 38.9303 -77.3156 317° Northwest 282 325 12,100 1,491 Climbing Washington Center
Mon 03:29:17 PM 39.0022 -77.3892 322° Northwest 306 352 13,900 1,664 Climbing Washington Center
Mon 03:30:18 PM 39.0739 -77.4686 319° Northwest 328 377 15,400 1,426 Climbing Washington Center
Mon 03:31:19 PM 39.1561 -77.5375 327° Northwest 343 395 16,800 1,311 Climbing Washington Center
Mon 03:32:17 PM 39.2406 -77.6094 327° Northwest 358 412 18,000 1,169 Climbing Washington Center
Mon 03:33:17 PM 39.3247 -77.6789 327° Northwest 358 412 19,100 942 Climbing Washington Center
Mon 03:34:18 PM 39.4108 -77.7511 327° Northwest 363 418 19,900 446 Climbing Washington Center
Mon 03:35:18 PM 39.5011 -77.8292 326° Northwest 373 429 20,000 38 Climbing Washington Center
Mon 03:36:54 PM 39.5917 -77.9997 305° West 361 415 20,000  Level Cleveland Center
Mon 03:37:54 PM 39.6217 -78.1225 288° West 351 404 20,000  Level Cleveland Center
Mon 03:38:54 PM 39.6533 -78.2400 289° West 351 404 20,000  Level Cleveland Center
Mon 03:39:54 PM 39.6869 -78.3575 290° West 351 404 20,000  Level Cleveland Center
Mon 03:40:54 PM 39.7225 -78.4725 292° West 345 397 20,000 -100 Level Cleveland Center
Mon 03:41:54 PM 39.7558 -78.5903 290° West 345 397 19,800 -800 Descending Cleveland Center
Mon 03:42:54 PM 39.7914 -78.7189 290° West 345 397 18,400 -1,200 Descending Cleveland Center
Mon 03:43:54 PM 39.8244 -78.8342 291° West 340 391 17,400 -1,100 Descending Cleveland Center
Mon 03:44:54 PM 39.8572 -78.9442 291° West 340 391 16,200 -1,250 Descending Cleveland Center
Mon 03:45:54 PM 39.8922 -79.0517 293° West 335 386 14,900 -1,250 Descending Cleveland Center
Mon 03:46:54 PM 39.9206 -79.1592 289° West 323 372 13,700 -1,200 Descending Cleveland Center
Mon 03:47:54 PM 39.9533 -79.2642 292° West 323 372 12,500 -1,200 Descending Cleveland Center
Mon 03:48:54 PM 39.9856 -79.3664 292° West 323 372 11,300 -1,200 Descending Cleveland Center
Mon 03:49:54 PM 40.0386 -79.4522 309° West 313 360 10,100 -650 Descending Cleveland Center
Mon 03:50:54 PM 40.0936 -79.5300 313° West 301 346 10,000 -50 Descending Cleveland Center
Mon 03:51:54 PM 40.1486 -79.6081 313° West 295 339 10,000  Level Cleveland Center
Mon 03:52:54 PM 40.1992 -79.6806 312° West 285 328 10,000 -250 Level Cleveland Center
Mon 03:53:54 PM 40.2433 -79.7400 314° West 259 298 9,500 -800 Descending Cleveland Center
Mon 03:54:54 PM 40.2856 -79.7992 313° West 239 275 8,400 -1,300 Descending Cleveland Center
Mon 03:55:54 PM 40.3233 -79.8561 311° West 217 250 6,900 -1,350 Descending Cleveland Center
Mon 03:56:54 PM 40.3611 -79.9100 313° West 207 238 5,700 -1,350 Descending Cleveland Center
Mon 03:57:54 PM 40.4011 -79.9642 314° West 207 238 4,200 -1,500 Descending Cleveland Center
Mon 03:59:00 PM 40.4373 -80.0715 North  Level Estimated
Mon 04:06:00 PM 40.4833 -80.2167 303° West  Level FlightAware Approximate
Mon 04:07:00 PM 40.4915 -80.2329 303° West  Level Estimated
Mon 04:08:00 PM 40.4915 -80.2329 303° West  Level Estimated
Mon 04:09:00 PM 40.4915 -80.2329 303° West  Level Estimated
Mon 04:10:00 PM 40.4915 -80.2329 303° West  Level Estimated
Mon 04:11:00 PM 40.4915 -80.2329 303° West  Level Estimated

Login

Don't have an account? Register now (free) for customized features, flight alerts, and more!